sensor_id;sensor_type;location;lat;lon;timestamp;temperature;humidity
10447;DHT22;5271;44.422;26.092;2023-04-09T00:02:01;12.70;85.20
10447;DHT22;5271;44.422;26.092;2023-04-09T00:04:28;12.70;84.90
10447;DHT22;5271;44.422;26.092;2023-04-09T00:06:56;12.70;85.10
10447;DHT22;5271;44.422;26.092;2023-04-09T00:09:23;12.70;85.20
10447;DHT22;5271;44.422;26.092;2023-04-09T00:11:49;12.70;85.50
10447;DHT22;5271;44.422;26.092;2023-04-09T00:14:16;12.50;85.60
10447;DHT22;5271;44.422;26.092;2023-04-09T00:16:43;12.50;86.20
10447;DHT22;5271;44.422;26.092;2023-04-09T00:19:10;12.30;86.70
10447;DHT22;5271;44.422;26.092;2023-04-09T00:21:37;12.20;86.90
10447;DHT22;5271;44.422;26.092;2023-04-09T00:24:05;12.20;87.10
10447;DHT22;5271;44.422;26.092;2023-04-09T00:26:32;12.10;87.50
10447;DHT22;5271;44.422;26.092;2023-04-09T00:28:59;12.10;87.50
10447;DHT22;5271;44.422;26.092;2023-04-09T00:31:26;12.10;87.20
10447;DHT22;5271;44.422;26.092;2023-04-09T00:33:53;12.10;87.10
10447;DHT22;5271;44.422;26.092;2023-04-09T00:36:19;12.20;86.90
10447;DHT22;5271;44.422;26.092;2023-04-09T00:38:46;12.20;86.80
10447;DHT22;5271;44.422;26.092;2023-04-09T00:41:15;12.30;86.60
10447;DHT22;5271;44.422;26.092;2023-04-09T00:43:42;12.40;86.50
10447;DHT22;5271;44.422;26.092;2023-04-09T00:46:09;12.40;86.60
10447;DHT22;5271;44.422;26.092;2023-04-09T00:48:36;12.40;86.60
10447;DHT22;5271;44.422;26.092;2023-04-09T00:51:03;12.40;86.50
10447;DHT22;5271;44.422;26.092;2023-04-09T00:53:30;12.40;86.50
10447;DHT22;5271;44.422;26.092;2023-04-09T00:55:57;12.40;86.60
10447;DHT22;5271;44.422;26.092;2023-04-09T00:58:25;12.40;86.40
10447;DHT22;5271;44.422;26.092;2023-04-09T01:00:52;12.40;86.40
10447;DHT22;5271;44.422;26.092;2023-04-09T01:03:19;12.40;87.40
10447;DHT22;5271;44.422;26.092;2023-04-09T01:05:52;12.30;86.60
10447;DHT22;5271;44.422;26.092;2023-04-09T01:08:29;12.30;86.60
10447;DHT22;5271;44.422;26.092;2023-04-09T01:11:01;12.30;86.50
10447;DHT22;5271;44.422;26.092;2023-04-09T01:13:40;12.30;86.90
10447;DHT22;5271;44.422;26.092;2023-04-09T01:16:09;12.30;86.40
10447;DHT22;5271;44.422;26.092;2023-04-09T01:18:42;12.30;86.30
10447;DHT22;5271;44.422;26.092;2023-04-09T01:21:12;12.40;86.80
10447;DHT22;5271;44.422;26.092;2023-04-09T01:23:45;12.40;86.50
10447;DHT22;5271;44.422;26.092;2023-04-09T01:26:20;12.40;85.90
10447;DHT22;5271;44.422;26.092;2023-04-09T01:28:53;12.50;86.30
10447;DHT22;5271;44.422;26.092;2023-04-09T01:31:25;12.50;85.90
10447;DHT22;5271;44.422;26.092;2023-04-09T01:33:54;12.40;86.10
10447;DHT22;5271;44.422;26.092;2023-04-09T01:36:22;12.40;86.30
10447;DHT22;5271;44.422;26.092;2023-04-09T01:38:49;12.30;86.80
10447;DHT22;5271;44.422;26.092;2023-04-09T01:41:19;12.30;87.10
10447;DHT22;5271;44.422;26.092;2023-04-09T01:43:48;12.20;87.00
10447;DHT22;5271;44.422;26.092;2023-04-09T01:46:17;12.20;87.00
10447;DHT22;5271;44.422;26.092;2023-04-09T01:48:45;12.20;87.10
10447;DHT22;5271;44.422;26.092;2023-04-09T01:51:12;12.20;87.10
10447;DHT22;5271;44.422;26.092;2023-04-09T01:53:40;12.20;87.00
10447;DHT22;5271;44.422;26.092;2023-04-09T01:56:07;12.20;87.30
10447;DHT22;5271;44.422;26.092;2023-04-09T01:58:34;12.20;87.00
10447;DHT22;5271;44.422;26.092;2023-04-09T02:01:05;12.30;86.90
10447;DHT22;5271;44.422;26.092;2023-04-09T02:03:38;12.30;86.80
10447;DHT22;5271;44.422;26.092;2023-04-09T02:06:11;12.30;86.80
10447;DHT22;5271;44.422;26.092;2023-04-09T02:08:41;12.30;86.80
10447;DHT22;5271;44.422;26.092;2023-04-09T02:11:09;12.30;86.80
10447;DHT22;5271;44.422;26.092;2023-04-09T02:13:37;12.30;86.90
10447;DHT22;5271;44.422;26.092;2023-04-09T02:16:06;12.30;86.70
10447;DHT22;5271;44.422;26.092;2023-04-09T02:18:35;12.30;86.80
10447;DHT22;5271;44.422;26.092;2023-04-09T02:21:02;12.30;86.70
10447;DHT22;5271;44.422;26.092;2023-04-09T02:23:30;12.30;86.70
10447;DHT22;5271;44.422;26.092;2023-04-09T02:25:58;12.30;86.80
10447;DHT22;5271;44.422;26.092;2023-04-09T02:28:25;12.20;87.00
10447;DHT22;5271;44.422;26.092;2023-04-09T02:30:52;12.20;87.00
10447;DHT22;5271;44.422;26.092;2023-04-09T02:33:18;12.20;87.00
10447;DHT22;5271;44.422;26.092;2023-04-09T02:35:47;12.20;87.30
10447;DHT22;5271;44.422;26.092;2023-04-09T02:38:13;12.20;87.30
10447;DHT22;5271;44.422;26.092;2023-04-09T02:40:40;12.20;87.40
10447;DHT22;5271;44.422;26.092;2023-04-09T02:43:08;12.20;87.40
10447;DHT22;5271;44.422;26.092;2023-04-09T02:45:35;12.10;87.30
10447;DHT22;5271;44.422;26.092;2023-04-09T02:48:01;12.20;87.30
10447;DHT22;5271;44.422;26.092;2023-04-09T02:50:28;12.20;87.10
10447;DHT22;5271;44.422;26.092;2023-04-09T02:52:57;12.20;87.20
10447;DHT22;5271;44.422;26.092;2023-04-09T02:55:23;12.10;87.20
10447;DHT22;5271;44.422;26.092;2023-04-09T02:57:50;12.10;87.10
10447;DHT22;5271;44.422;26.092;2023-04-09T03:00:17;12.10;87.20
10447;DHT22;5271;44.422;26.092;2023-04-09T03:02:44;12.20;87.10
10447;DHT22;5271;44.422;26.092;2023-04-09T03:05:11;12.20;87.20
10447;DHT22;5271;44.422;26.092;2023-04-09T03:07:37;12.20;87.20
10447;DHT22;5271;44.422;26.092;2023-04-09T03:10:06;12.20;87.30
10447;DHT22;5271;44.422;26.092;2023-04-09T03:12:33;12.20;87.20
10447;DHT22;5271;44.422;26.092;2023-04-09T03:15:00;12.20;87.20
10447;DHT22;5271;44.422;26.092;2023-04-09T03:17:27;12.10;87.20
10447;DHT22;5271;44.422;26.092;2023-04-09T03:19:56;12.10;87.10
10447;DHT22;5271;44.422;26.092;2023-04-09T03:22:23;12.10;87.30
10447;DHT22;5271;44.422;26.092;2023-04-09T03:24:50;12.10;87.50
10447;DHT22;5271;44.422;26.092;2023-04-09T03:27:18;12.00;87.60
10447;DHT22;5271;44.422;26.092;2023-04-09T03:29:45;12.00;88.00
10447;DHT22;5271;44.422;26.092;2023-04-09T03:32:12;11.80;88.10
10447;DHT22;5271;44.422;26.092;2023-04-09T03:34:39;11.80;88.40
10447;DHT22;5271;44.422;26.092;2023-04-09T03:37:05;11.80;88.30
10447;DHT22;5271;44.422;26.092;2023-04-09T03:39:32;11.80;88.10
10447;DHT22;5271;44.422;26.092;2023-04-09T03:41:59;11.90;88.00
10447;DHT22;5271;44.422;26.092;2023-04-09T03:44:27;11.90;88.00
10447;DHT22;5271;44.422;26.092;2023-04-09T03:46:54;11.90;87.90
10447;DHT22;5271;44.422;26.092;2023-04-09T03:49:21;11.90;87.80
10447;DHT22;5271;44.422;26.092;2023-04-09T03:51:48;11.90;87.80
10447;DHT22;5271;44.422;26.092;2023-04-09T03:54:14;11.90;87.90
10447;DHT22;5271;44.422;26.092;2023-04-09T03:56:41;11.80;88.10
10447;DHT22;5271;44.422;26.092;2023-04-09T03:59:08;11.80;88.20
10447;DHT22;5271;44.422;26.092;2023-04-09T04:01:36;11.80;88.10
10447;DHT22;5271;44.422;26.092;2023-04-09T04:04:03;11.80;88.10
10447;DHT22;5271;44.422;26.092;2023-04-09T04:06:32;11.80;88.30
10447;DHT22;5271;44.422;26.092;2023-04-09T04:09:00;11.80;88.00
10447;DHT22;5271;44.422;26.092;2023-04-09T04:11:26;11.80;88.40
10447;DHT22;5271;44.422;26.092;2023-04-09T04:13:54;11.70;89.10
10447;DHT22;5271;44.422;26.092;2023-04-09T04:16:21;11.60;88.70
10447;DHT22;5271;44.422;26.092;2023-04-09T04:18:49;11.60;88.70
10447;DHT22;5271;44.422;26.092;2023-04-09T04:21:16;11.60;89.00
10447;DHT22;5271;44.422;26.092;2023-04-09T04:23:43;11.60;88.90
10447;DHT22;5271;44.422;26.092;2023-04-09T04:26:10;11.60;89.00
10447;DHT22;5271;44.422;26.092;2023-04-09T04:28:37;11.60;89.10
10447;DHT22;5271;44.422;26.092;2023-04-09T04:31:06;11.60;89.60
10447;DHT22;5271;44.422;26.092;2023-04-09T04:33:35;11.60;89.00
10447;DHT22;5271;44.422;26.092;2023-04-09T04:36:07;11.60;89.10
10447;DHT22;5271;44.422;26.092;2023-04-09T04:38:35;11.60;89.00
10447;DHT22;5271;44.422;26.092;2023-04-09T04:41:02;11.50;89.30
10447;DHT22;5271;44.422;26.092;2023-04-09T04:43:29;11.50;89.50
10447;DHT22;5271;44.422;26.092;2023-04-09T04:45:56;11.40;89.50
10447;DHT22;5271;44.422;26.092;2023-04-09T04:48:23;11.40;89.60
10447;DHT22;5271;44.422;26.092;2023-04-09T04:50:54;11.40;89.60
10447;DHT22;5271;44.422;26.092;2023-04-09T04:53:23;11.40;89.90
10447;DHT22;5271;44.422;26.092;2023-04-09T04:55:50;11.40;89.60
10447;DHT22;5271;44.422;26.092;2023-04-09T04:58:17;11.40;89.50
10447;DHT22;5271;44.422;26.092;2023-04-09T05:00:44;11.40;89.50
10447;DHT22;5271;44.422;26.092;2023-04-09T05:03:11;11.40;89.50
10447;DHT22;5271;44.422;26.092;2023-04-09T05:05:38;11.40;89.30
10447;DHT22;5271;44.422;26.092;2023-04-09T05:08:05;11.40;89.30
10447;DHT22;5271;44.422;26.092;2023-04-09T05:10:33;11.30;89.60
10447;DHT22;5271;44.422;26.092;2023-04-09T05:13:00;11.30;89.80
10447;DHT22;5271;44.422;26.092;2023-04-09T05:15:27;11.30;89.70
10447;DHT22;5271;44.422;26.092;2023-04-09T05:17:54;11.30;89.90
10447;DHT22;5271;44.422;26.092;2023-04-09T05:20:21;11.30;89.80
10447;DHT22;5271;44.422;26.092;2023-04-09T05:22:47;11.30;89.70
10447;DHT22;5271;44.422;26.092;2023-04-09T05:25:15;11.30;90.20
10447;DHT22;5271;44.422;26.092;2023-04-09T05:27:43;11.30;90.00
10447;DHT22;5271;44.422;26.092;2023-04-09T05:30:10;11.30;89.80
10447;DHT22;5271;44.422;26.092;2023-04-09T05:32:37;11.30;90.00
10447;DHT22;5271;44.422;26.092;2023-04-09T05:35:05;11.30;90.10
10447;DHT22;5271;44.422;26.092;2023-04-09T05:37:32;11.30;90.10
10447;DHT22;5271;44.422;26.092;2023-04-09T05:39:58;11.30;90.30
10447;DHT22;5271;44.422;26.092;2023-04-09T05:42:25;11.30;90.00
10447;DHT22;5271;44.422;26.092;2023-04-09T05:44:53;11.40;90.00
10447;DHT22;5271;44.422;26.092;2023-04-09T05:47:20;11.30;90.00
10447;DHT22;5271;44.422;26.092;2023-04-09T05:49:47;11.30;90.00
10447;DHT22;5271;44.422;26.092;2023-04-09T05:52:14;11.40;90.00
10447;DHT22;5271;44.422;26.092;2023-04-09T05:54:41;11.50;89.80
10447;DHT22;5271;44.422;26.092;2023-04-09T05:57:08;11.50;89.70
10447;DHT22;5271;44.422;26.092;2023-04-09T05:59:35;11.50;89.80
10447;DHT22;5271;44.422;26.092;2023-04-09T06:02:03;11.50;90.00
10447;DHT22;5271;44.422;26.092;2023-04-09T06:04:30;11.50;90.00
10447;DHT22;5271;44.422;26.092;2023-04-09T06:06:57;11.50;89.90
10447;DHT22;5271;44.422;26.092;2023-04-09T06:09:24;11.50;89.80
10447;DHT22;5271;44.422;26.092;2023-04-09T06:11:52;11.60;89.60
10447;DHT22;5271;44.422;26.092;2023-04-09T06:14:19;11.60;89.50
10447;DHT22;5271;44.422;26.092;2023-04-09T06:16:45;11.60;89.40
10447;DHT22;5271;44.422;26.092;2023-04-09T06:19:16;11.70;89.50
10447;DHT22;5271;44.422;26.092;2023-04-09T06:21:43;11.60;89.50
10447;DHT22;5271;44.422;26.092;2023-04-09T06:24:09;11.60;89.60
10447;DHT22;5271;44.422;26.092;2023-04-09T06:26:36;11.60;89.70
10447;DHT22;5271;44.422;26.092;2023-04-09T06:29:03;11.50;89.90
10447;DHT22;5271;44.422;26.092;2023-04-09T06:31:30;11.50;89.90
10447;DHT22;5271;44.422;26.092;2023-04-09T06:33:57;11.60;89.80
10447;DHT22;5271;44.422;26.092;2023-04-09T06:36:26;11.60;89.80
10447;DHT22;5271;44.422;26.092;2023-04-09T06:38:53;11.60;89.80
10447;DHT22;5271;44.422;26.092;2023-04-09T06:41:20;11.60;89.80
10447;DHT22;5271;44.422;26.092;2023-04-09T06:43:47;11.70;89.60
10447;DHT22;5271;44.422;26.092;2023-04-09T06:46:14;11.70;89.40
10447;DHT22;5271;44.422;26.092;2023-04-09T06:48:44;11.80;89.30
10447;DHT22;5271;44.422;26.092;2023-04-09T06:51:12;11.80;89.40
10447;DHT22;5271;44.422;26.092;2023-04-09T06:53:40;11.90;89.30
10447;DHT22;5271;44.422;26.092;2023-04-09T06:56:07;11.90;89.30
10447;DHT22;5271;44.422;26.092;2023-04-09T06:58:34;11.90;89.20
10447;DHT22;5271;44.422;26.092;2023-04-09T07:01:01;11.90;89.10
10447;DHT22;5271;44.422;26.092;2023-04-09T07:03:29;12.00;89.10
10447;DHT22;5271;44.422;26.092;2023-04-09T07:05:56;12.00;88.80
10447;DHT22;5271;44.422;26.092;2023-04-09T07:08:23;12.20;88.60
10447;DHT22;5271;44.422;26.092;2023-04-09T07:10:51;12.20;88.30
10447;DHT22;5271;44.422;26.092;2023-04-09T07:13:18;12.20;88.30
10447;DHT22;5271;44.422;26.092;2023-04-09T07:15:46;12.20;88.00
10447;DHT22;5271;44.422;26.092;2023-04-09T07:18:12;12.20;88.00
10447;DHT22;5271;44.422;26.092;2023-04-09T07:20:39;12.30;88.00
10447;DHT22;5271;44.422;26.092;2023-04-09T07:23:06;12.30;87.90
10447;DHT22;5271;44.422;26.092;2023-04-09T07:25:33;12.40;88.00
10447;DHT22;5271;44.422;26.092;2023-04-09T07:28:01;12.40;87.60
10447;DHT22;5271;44.422;26.092;2023-04-09T07:30:28;12.50;87.60
10447;DHT22;5271;44.422;26.092;2023-04-09T07:32:56;12.70;87.50
10447;DHT22;5271;44.422;26.092;2023-04-09T07:35:23;12.70;86.60
10447;DHT22;5271;44.422;26.092;2023-04-09T07:37:49;12.80;87.10
10447;DHT22;5271;44.422;26.092;2023-04-09T07:40:16;12.90;86.60
10447;DHT22;5271;44.422;26.092;2023-04-09T07:42:43;13.00;86.30
10447;DHT22;5271;44.422;26.092;2023-04-09T07:45:11;13.10;85.30
10447;DHT22;5271;44.422;26.092;2023-04-09T07:47:38;13.20;85.00
10447;DHT22;5271;44.422;26.092;2023-04-09T07:50:07;13.40;84.90
10447;DHT22;5271;44.422;26.092;2023-04-09T07:52:34;13.50;84.40
10447;DHT22;5271;44.422;26.092;2023-04-09T07:55:01;13.70;83.90
10447;DHT22;5271;44.422;26.092;2023-04-09T07:57:30;13.90;83.40
10447;DHT22;5271;44.422;26.092;2023-04-09T07:59:57;14.60;83.80
10447;DHT22;5271;44.422;26.092;2023-04-09T08:02:25;16.40;80.40
10447;DHT22;5271;44.422;26.092;2023-04-09T08:04:52;18.20;76.50
10447;DHT22;5271;44.422;26.092;2023-04-09T08:07:19;19.50;69.50
10447;DHT22;5271;44.422;26.092;2023-04-09T08:09:46;20.50;70.00
10447;DHT22;5271;44.422;26.092;2023-04-09T08:12:13;21.60;67.90
10447;DHT22;5271;44.422;26.092;2023-04-09T08:14:40;22.60;64.10
10447;DHT22;5271;44.422;26.092;2023-04-09T08:17:08;23.40;61.80
10447;DHT22;5271;44.422;26.092;2023-04-09T08:19:37;23.90;61.80
10447;DHT22;5271;44.422;26.092;2023-04-09T08:22:03;24.50;59.80
10447;DHT22;5271;44.422;26.092;2023-04-09T08:24:30;24.90;58.00
10447;DHT22;5271;44.422;26.092;2023-04-09T08:26:57;24.80;56.70
10447;DHT22;5271;44.422;26.092;2023-04-09T08:29:25;23.50;59.00
10447;DHT22;5271;44.422;26.092;2023-04-09T08:31:52;21.90;60.60
10447;DHT22;5271;44.422;26.092;2023-04-09T08:34:19;20.90;63.80
10447;DHT22;5271;44.422;26.092;2023-04-09T08:36:48;19.80;64.00
10447;DHT22;5271;44.422;26.092;2023-04-09T08:39:15;19.00;66.20
10447;DHT22;5271;44.422;26.092;2023-04-09T08:41:44;18.60;67.80
10447;DHT22;5271;44.422;26.092;2023-04-09T08:44:12;18.20;67.70
10447;DHT22;5271;44.422;26.092;2023-04-09T08:46:39;17.90;68.90
10447;DHT22;5271;44.422;26.092;2023-04-09T08:49:07;17.70;69.20
10447;DHT22;5271;44.422;26.092;2023-04-09T08:51:34;17.50;70.00
10447;DHT22;5271;44.422;26.092;2023-04-09T08:54:02;17.50;70.60
10447;DHT22;5271;44.422;26.092;2023-04-09T08:56:29;17.40;70.10
10447;DHT22;5271;44.422;26.092;2023-04-09T08:58:56;17.30;71.10
10447;DHT22;5271;44.422;26.092;2023-04-09T09:01:25;17.40;70.90
10447;DHT22;5271;44.422;26.092;2023-04-09T09:03:57;17.40;71.40
10447;DHT22;5271;44.422;26.092;2023-04-09T09:06:26;17.50;71.50
10447;DHT22;5271;44.422;26.092;2023-04-09T09:09:03;17.60;70.30
10447;DHT22;5271;44.422;26.092;2023-04-09T09:11:31;17.60;70.20
10447;DHT22;5271;44.422;26.092;2023-04-09T09:13:59;17.70;70.60
10447;DHT22;5271;44.422;26.092;2023-04-09T09:16:26;17.90;70.60
10447;DHT22;5271;44.422;26.092;2023-04-09T09:18:53;18.00;69.90
10447;DHT22;5271;44.422;26.092;2023-04-09T09:21:21;18.00;69.30
10447;DHT22;5271;44.422;26.092;2023-04-09T09:23:48;17.90;68.60
10447;DHT22;5271;44.422;26.092;2023-04-09T09:26:17;17.90;69.30
10447;DHT22;5271;44.422;26.092;2023-04-09T09:28:45;17.90;69.70
10447;DHT22;5271;44.422;26.092;2023-04-09T09:31:13;17.80;69.90
10447;DHT22;5271;44.422;26.092;2023-04-09T09:33:40;17.90;70.30
10447;DHT22;5271;44.422;26.092;2023-04-09T09:36:07;18.00;69.50
10447;DHT22;5271;44.422;26.092;2023-04-09T09:38:39;18.10;68.60
10447;DHT22;5271;44.422;26.092;2023-04-09T09:41:18;18.00;68.90
10447;DHT22;5271;44.422;26.092;2023-04-09T09:43:45;17.90;68.60
10447;DHT22;5271;44.422;26.092;2023-04-09T09:46:12;17.80;69.50
10447;DHT22;5271;44.422;26.092;2023-04-09T09:48:39;18.00;69.20
10447;DHT22;5271;44.422;26.092;2023-04-09T09:51:08;18.20;69.10
10447;DHT22;5271;44.422;26.092;2023-04-09T09:53:36;18.20;68.60
10447;DHT22;5271;44.422;26.092;2023-04-09T09:56:04;18.20;67.90
10447;DHT22;5271;44.422;26.092;2023-04-09T09:58:36;18.20;68.60
10447;DHT22;5271;44.422;26.092;2023-04-09T10:01:07;18.30;68.60
10447;DHT22;5271;44.422;26.092;2023-04-09T10:03:38;18.40;68.20
10447;DHT22;5271;44.422;26.092;2023-04-09T10:06:05;18.50;68.40
10447;DHT22;5271;44.422;26.092;2023-04-09T10:08:33;18.60;67.70
10447;DHT22;5271;44.422;26.092;2023-04-09T10:11:02;18.70;67.30
10447;DHT22;5271;44.422;26.092;2023-04-09T10:13:34;18.80;67.20
10447;DHT22;5271;44.422;26.092;2023-04-09T10:16:03;18.80;65.80
10447;DHT22;5271;44.422;26.092;2023-04-09T10:18:31;18.80;66.00
10447;DHT22;5271;44.422;26.092;2023-04-09T10:21:04;18.80;66.40
10447;DHT22;5271;44.422;26.092;2023-04-09T10:23:38;18.80;66.70
10447;DHT22;5271;44.422;26.092;2023-04-09T10:26:05;18.90;66.50
10447;DHT22;5271;44.422;26.092;2023-04-09T10:28:36;18.80;65.90
10447;DHT22;5271;44.422;26.092;2023-04-09T10:31:03;18.90;65.90
10447;DHT22;5271;44.422;26.092;2023-04-09T10:33:31;18.80;65.80
10447;DHT22;5271;44.422;26.092;2023-04-09T10:35:59;18.80;65.70
10447;DHT22;5271;44.422;26.092;2023-04-09T10:38:35;18.70;66.00
10447;DHT22;5271;44.422;26.092;2023-04-09T10:41:13;18.80;66.10
10447;DHT22;5271;44.422;26.092;2023-04-09T10:43:42;18.80;65.50
10447;DHT22;5271;44.422;26.092;2023-04-09T10:46:25;18.70;66.30
10447;DHT22;5271;44.422;26.092;2023-04-09T10:49:09;18.80;65.60
10447;DHT22;5271;44.422;26.092;2023-04-09T10:51:37;18.70;65.50
10447;DHT22;5271;44.422;26.092;2023-04-09T10:54:04;18.60;65.60
10447;DHT22;5271;44.422;26.092;2023-04-09T10:56:32;18.70;66.20
10447;DHT22;5271;44.422;26.092;2023-04-09T10:59:00;18.80;66.20
10447;DHT22;5271;44.422;26.092;2023-04-09T11:01:27;18.80;66.10
10447;DHT22;5271;44.422;26.092;2023-04-09T11:04:08;19.00;67.00
10447;DHT22;5271;44.422;26.092;2023-04-09T11:06:39;19.20;65.80
10447;DHT22;5271;44.422;26.092;2023-04-09T11:09:07;19.40;65.60
10447;DHT22;5271;44.422;26.092;2023-04-09T11:11:34;19.40;64.90
10447;DHT22;5271;44.422;26.092;2023-04-09T11:14:02;19.30;64.20
10447;DHT22;5271;44.422;26.092;2023-04-09T11:16:30;19.20;64.00
10447;DHT22;5271;44.422;26.092;2023-04-09T11:18:57;19.20;65.00
10447;DHT22;5271;44.422;26.092;2023-04-09T11:21:26;19.20;64.60
10447;DHT22;5271;44.422;26.092;2023-04-09T11:23:53;19.30;64.30
10447;DHT22;5271;44.422;26.092;2023-04-09T11:26:22;19.20;64.20
10447;DHT22;5271;44.422;26.092;2023-04-09T11:28:54;19.10;64.70
10447;DHT22;5271;44.422;26.092;2023-04-09T11:31:27;19.10;64.90
10447;DHT22;5271;44.422;26.092;2023-04-09T11:33:54;19.20;65.10
10447;DHT22;5271;44.422;26.092;2023-04-09T11:36:21;19.30;65.50
10447;DHT22;5271;44.422;26.092;2023-04-09T11:38:48;19.40;64.60
10447;DHT22;5271;44.422;26.092;2023-04-09T11:41:15;19.50;65.10
10447;DHT22;5271;44.422;26.092;2023-04-09T11:43:42;19.50;64.50
10447;DHT22;5271;44.422;26.092;2023-04-09T11:46:10;19.50;64.40
10447;DHT22;5271;44.422;26.092;2023-04-09T11:48:38;19.50;64.40
10447;DHT22;5271;44.422;26.092;2023-04-09T11:51:05;19.40;63.90
10447;DHT22;5271;44.422;26.092;2023-04-09T11:53:32;19.30;64.00
10447;DHT22;5271;44.422;26.092;2023-04-09T11:56:03;19.10;63.50
10447;DHT22;5271;44.422;26.092;2023-04-09T11:58:30;19.00;63.50
10447;DHT22;5271;44.422;26.092;2023-04-09T12:00:58;18.90;64.00
10447;DHT22;5271;44.422;26.092;2023-04-09T12:03:28;18.80;64.80
10447;DHT22;5271;44.422;26.092;2023-04-09T12:05:59;18.80;64.40
10447;DHT22;5271;44.422;26.092;2023-04-09T12:08:27;18.80;64.70
10447;DHT22;5271;44.422;26.092;2023-04-09T12:10:53;18.80;64.00
10447;DHT22;5271;44.422;26.092;2023-04-09T12:13:20;18.90;64.40
10447;DHT22;5271;44.422;26.092;2023-04-09T12:15:48;18.90;63.50
10447;DHT22;5271;44.422;26.092;2023-04-09T12:18:15;18.90;64.00
10447;DHT22;5271;44.422;26.092;2023-04-09T12:20:43;18.90;63.40
10447;DHT22;5271;44.422;26.092;2023-04-09T12:23:15;18.90;64.30
10447;DHT22;5271;44.422;26.092;2023-04-09T12:25:43;18.80;63.80
10447;DHT22;5271;44.422;26.092;2023-04-09T12:28:13;18.80;64.00
10447;DHT22;5271;44.422;26.092;2023-04-09T12:30:42;18.70;62.80
10447;DHT22;5271;44.422;26.092;2023-04-09T12:33:09;18.70;63.40
10447;DHT22;5271;44.422;26.092;2023-04-09T12:35:36;18.70;63.80
10447;DHT22;5271;44.422;26.092;2023-04-09T12:38:03;18.60;63.80
10447;DHT22;5271;44.422;26.092;2023-04-09T12:40:32;18.70;64.70
10447;DHT22;5271;44.422;26.092;2023-04-09T12:42:59;18.60;63.80
10447;DHT22;5271;44.422;26.092;2023-04-09T12:45:26;18.60;64.10
10447;DHT22;5271;44.422;26.092;2023-04-09T12:47:53;18.60;64.60
10447;DHT22;5271;44.422;26.092;2023-04-09T12:50:20;18.50;64.50
10447;DHT22;5271;44.422;26.092;2023-04-09T12:52:47;18.60;64.80
10447;DHT22;5271;44.422;26.092;2023-04-09T12:55:14;18.50;64.70
10447;DHT22;5271;44.422;26.092;2023-04-09T12:57:43;18.50;64.60
10447;DHT22;5271;44.422;26.092;2023-04-09T13:00:12;18.50;63.90
10447;DHT22;5271;44.422;26.092;2023-04-09T13:02:39;18.40;63.60
10447;DHT22;5271;44.422;26.092;2023-04-09T13:05:07;18.50;64.00
10447;DHT22;5271;44.422;26.092;2023-04-09T13:07:33;18.50;64.20
10447;DHT22;5271;44.422;26.092;2023-04-09T13:10:00;18.60;64.10
10447;DHT22;5271;44.422;26.092;2023-04-09T13:12:27;18.70;63.30
10447;DHT22;5271;44.422;26.092;2023-04-09T13:14:56;18.70;63.30
10447;DHT22;5271;44.422;26.092;2023-04-09T13:17:23;18.70;63.80
10447;DHT22;5271;44.422;26.092;2023-04-09T13:19:50;18.70;63.80
10447;DHT22;5271;44.422;26.092;2023-04-09T13:22:18;18.70;64.00
10447;DHT22;5271;44.422;26.092;2023-04-09T13:24:45;18.70;63.80
10447;DHT22;5271;44.422;26.092;2023-04-09T13:27:12;18.80;63.70
10447;DHT22;5271;44.422;26.092;2023-04-09T13:29:38;18.80;63.50
10447;DHT22;5271;44.422;26.092;2023-04-09T13:32:07;18.90;63.30
10447;DHT22;5271;44.422;26.092;2023-04-09T13:34:35;18.80;61.20
10447;DHT22;5271;44.422;26.092;2023-04-09T13:37:02;18.80;61.80
10447;DHT22;5271;44.422;26.092;2023-04-09T13:39:29;18.70;61.80
10447;DHT22;5271;44.422;26.092;2023-04-09T13:41:56;18.70;60.30
10447;DHT22;5271;44.422;26.092;2023-04-09T13:44:24;18.70;60.00
10447;DHT22;5271;44.422;26.092;2023-04-09T13:46:51;18.70;60.60
10447;DHT22;5271;44.422;26.092;2023-04-09T13:49:19;18.80;60.20
10447;DHT22;5271;44.422;26.092;2023-04-09T13:51:47;18.80;60.10
10447;DHT22;5271;44.422;26.092;2023-04-09T13:54:14;18.90;60.40
10447;DHT22;5271;44.422;26.092;2023-04-09T13:56:40;18.90;59.90
10447;DHT22;5271;44.422;26.092;2023-04-09T13:59:07;19.00;59.80
10447;DHT22;5271;44.422;26.092;2023-04-09T14:01:34;19.00;60.20
10447;DHT22;5271;44.422;26.092;2023-04-09T14:04:01;19.00;59.10
10447;DHT22;5271;44.422;26.092;2023-04-09T14:06:29;19.00;59.40
10447;DHT22;5271;44.422;26.092;2023-04-09T14:08:56;19.00;58.00
10447;DHT22;5271;44.422;26.092;2023-04-09T14:11:23;19.00;58.80
10447;DHT22;5271;44.422;26.092;2023-04-09T14:13:50;19.10;59.10
10447;DHT22;5271;44.422;26.092;2023-04-09T14:16:18;19.10;57.70
10447;DHT22;5271;44.422;26.092;2023-04-09T14:18:45;19.00;58.00
10447;DHT22;5271;44.422;26.092;2023-04-09T14:21:12;19.10;57.40
10447;DHT22;5271;44.422;26.092;2023-04-09T14:23:40;19.10;57.00
10447;DHT22;5271;44.422;26.092;2023-04-09T14:26:07;19.10;56.40
10447;DHT22;5271;44.422;26.092;2023-04-09T14:28:33;19.10;56.80
10447;DHT22;5271;44.422;26.092;2023-04-09T14:31:01;19.10;57.40
10447;DHT22;5271;44.422;26.092;2023-04-09T14:33:28;19.10;57.40
10447;DHT22;5271;44.422;26.092;2023-04-09T14:35:55;19.30;57.50
10447;DHT22;5271;44.422;26.092;2023-04-09T14:38:22;19.20;56.80
10447;DHT22;5271;44.422;26.092;2023-04-09T14:40:50;19.20;58.20
10447;DHT22;5271;44.422;26.092;2023-04-09T14:43:17;19.30;58.90
10447;DHT22;5271;44.422;26.092;2023-04-09T14:45:44;19.40;59.20
10447;DHT22;5271;44.422;26.092;2023-04-09T14:48:11;19.50;59.30
10447;DHT22;5271;44.422;26.092;2023-04-09T14:50:38;19.50;59.40
10447;DHT22;5271;44.422;26.092;2023-04-09T14:53:05;19.50;59.50
10447;DHT22;5271;44.422;26.092;2023-04-09T14:55:32;19.50;58.30
10447;DHT22;5271;44.422;26.092;2023-04-09T14:58:01;19.50;58.30
10447;DHT22;5271;44.422;26.092;2023-04-09T15:00:29;19.50;58.40
10447;DHT22;5271;44.422;26.092;2023-04-09T15:02:56;19.50;58.20
10447;DHT22;5271;44.422;26.092;2023-04-09T15:05:22;19.50;58.30
10447;DHT22;5271;44.422;26.092;2023-04-09T15:07:49;19.50;58.40
10447;DHT22;5271;44.422;26.092;2023-04-09T15:10:16;19.50;58.70
10447;DHT22;5271;44.422;26.092;2023-04-09T15:12:43;19.40;58.30
10447;DHT22;5271;44.422;26.092;2023-04-09T15:15:12;19.40;58.50
10447;DHT22;5271;44.422;26.092;2023-04-09T15:17:39;19.40;58.60
10447;DHT22;5271;44.422;26.092;2023-04-09T15:20:06;19.40;58.80
10447;DHT22;5271;44.422;26.092;2023-04-09T15:22:33;19.40;59.00
10447;DHT22;5271;44.422;26.092;2023-04-09T15:25:00;19.40;59.10
10447;DHT22;5271;44.422;26.092;2023-04-09T15:27:28;19.40;59.40
10447;DHT22;5271;44.422;26.092;2023-04-09T15:29:54;19.40;59.60
10447;DHT22;5271;44.422;26.092;2023-04-09T15:32:23;19.40;59.70
10447;DHT22;5271;44.422;26.092;2023-04-09T15:34:49;19.40;59.90